sensor_id;sensor_type;location;lat;lon;timestamp;pressure;altitude;pressure_sealevel;temperature;humidity
20228;BME280;12195;55.790;37.572;2024-03-23T00:53:25;98748.40;;;5.10;63.35
20228;BME280;12195;55.790;37.572;2024-03-23T00:55:58;98751.31;;;5.04;63.91
20228;BME280;12195;55.790;37.572;2024-03-23T00:58:30;98745.39;;;5.01;63.91
20228;BME280;12195;55.790;37.572;2024-03-23T01:01:03;98747.23;;;4.99;64.27
20228;BME280;12195;55.790;37.572;2024-03-23T01:03:36;98744.64;;;4.99;64.57
20228;BME280;12195;55.790;37.572;2024-03-23T01:06:08;98737.66;;;4.99;64.85
20228;BME280;12195;55.790;37.572;2024-03-23T01:08:40;98729.78;;;5.01;65.09
20228;BME280;12195;55.790;37.572;2024-03-23T01:11:13;98727.19;;;5.01;65.33
20228;BME280;12195;55.790;37.572;2024-03-23T01:13:46;98720.98;;;5.03;65.45
20228;BME280;12195;55.790;37.572;2024-03-23T01:16:18;98720.09;;;5.04;65.63
20228;BME280;12195;55.790;37.572;2024-03-23T01:18:50;98722.45;;;5.09;65.68
20228;BME280;12195;55.790;37.572;2024-03-23T01:21:23;98718.86;;;5.11;65.89
20228;BME280;12195;55.790;37.572;2024-03-23T01:23:56;98711.77;;;5.15;65.48
20228;BME280;12195;55.790;37.572;2024-03-23T01:26:28;98707.56;;;5.12;65.99
20228;BME280;12195;55.790;37.572;2024-03-23T01:29:01;98708.39;;;5.13;66.07
20228;BME280;12195;55.790;37.572;2024-03-23T01:31:33;98703.11;;;5.14;65.94
20228;BME280;12195;55.790;37.572;2024-03-23T01:34:05;98704.72;;;5.17;66.05
20228;BME280;12195;55.790;37.572;2024-03-23T01:36:39;98690.17;;;5.13;66.39
20228;BME280;12195;55.790;37.572;2024-03-23T01:39:11;98699.66;;;5.14;66.57
20228;BME280;12195;55.790;37.572;2024-03-23T01:41:45;98687.58;;;5.13;66.70
20228;BME280;12195;55.790;37.572;2024-03-23T01:44:17;98679.70;;;5.14;66.97
20228;BME280;12195;55.790;37.572;2024-03-23T01:46:50;98675.49;;;5.12;67.10
20228;BME280;12195;55.790;37.572;2024-03-23T01:49:24;98674.64;;;5.11;67.33
20228;BME280;12195;55.790;37.572;2024-03-23T01:51:56;98676.34;;;5.12;67.30
20228;BME280;12195;55.790;37.572;2024-03-23T01:54:30;98675.49;;;5.12;67.46
20228;BME280;12195;55.790;37.572;2024-03-23T01:57:02;98670.05;;;5.16;67.27
20228;BME280;12195;55.790;37.572;2024-03-23T01:59:35;98672.50;;;5.19;67.19
20228;BME280;12195;55.790;37.572;2024-03-23T02:02:10;98668.30;;;5.17;67.72
20228;BME280;12195;55.790;37.572;2024-03-23T02:04:42;98658.81;;;5.16;67.74
20228;BME280;12195;55.790;37.572;2024-03-23T02:07:15;98651.01;;;5.16;68.12
20228;BME280;12195;55.790;37.572;2024-03-23T02:09:48;98654.36;;;5.18;67.97
20228;BME280;12195;55.790;37.572;2024-03-23T02:12:20;98644.03;;;5.16;68.34
20228;BME280;12195;55.790;37.572;2024-03-23T02:14:54;98638.00;;;5.16;68.33
20228;BME280;12195;55.790;37.572;2024-03-23T02:17:26;98637.08;;;5.17;68.41
20228;BME280;12195;55.790;37.572;2024-03-23T02:19:59;98633.62;;;5.16;68.57
20228;BME280;12195;55.790;37.572;2024-03-23T02:22:38;98621.47;;;5.17;68.75
20228;BME280;12195;55.790;37.572;2024-03-23T02:25:11;98629.05;;;5.21;68.59
20228;BME280;12195;55.790;37.572;2024-03-23T02:27:45;98624.53;;;5.25;68.64
20228;BME280;12195;55.790;37.572;2024-03-23T02:30:17;98619.92;;;5.30;68.59
20228;BME280;12195;55.790;37.572;2024-03-23T02:32:49;98620.78;;;5.30;68.58
20228;BME280;12195;55.790;37.572;2024-03-23T02:35:22;98612.12;;;5.30;68.88
20228;BME280;12195;55.790;37.572;2024-03-23T02:37:56;98603.09;;;5.37;68.46
20228;BME280;12195;55.790;37.572;2024-03-23T02:40:28;98590.22;;;5.34;68.86
20228;BME280;12195;55.790;37.572;2024-03-23T02:43:02;98599.55;;;5.38;68.81
20228;BME280;12195;55.790;37.572;2024-03-23T02:45:35;98592.45;;;5.41;68.62
20228;BME280;12195;55.790;37.572;2024-03-23T02:48:08;98580.26;;;5.42;68.79
20228;BME280;12195;55.790;37.572;2024-03-23T02:50:40;98578.44;;;5.44;68.72
20228;BME280;12195;55.790;37.572;2024-03-23T02:53:13;98585.98;;;5.48;68.62
20228;BME280;12195;55.790;37.572;2024-03-23T02:55:45;98566.16;;;5.46;68.77
20228;BME280;12195;55.790;37.572;2024-03-23T02:58:18;98563.48;;;5.47;68.58
20228;BME280;12195;55.790;37.572;2024-03-23T03:00:51;98556.45;;;5.49;68.77
20228;BME280;12195;55.790;37.572;2024-03-23T03:03:24;98554.67;;;5.50;68.88
20228;BME280;12195;55.790;37.572;2024-03-23T03:05:57;98549.31;;;5.53;68.85
20228;BME280;12195;55.790;37.572;2024-03-23T03:08:29;98538.98;;;5.51;68.60
20228;BME280;12195;55.790;37.572;2024-03-23T03:11:02;98539.83;;;5.52;68.58
20228;BME280;12195;55.790;37.572;2024-03-23T03:13:34;98526.61;;;5.39;69.05
20228;BME280;12195;55.790;37.572;2024-03-23T03:16:09;98531.07;;;5.37;69.08
20228;BME280;12195;55.790;37.572;2024-03-23T03:18:42;98526.61;;;5.39;68.75
20228;BME280;12195;55.790;37.572;2024-03-23T03:21:14;98531.53;;;5.28;69.26
20228;BME280;12195;55.790;37.572;2024-03-23T03:23:47;98528.18;;;5.26;69.72
20228;BME280;12195;55.790;37.572;2024-03-23T03:26:21;98517.63;;;5.29;69.28
20228;BME280;12195;55.790;37.572;2024-03-23T03:28:54;98524.66;;;5.27;69.63
20228;BME280;12195;55.790;37.572;2024-03-23T03:31:27;98516.41;;;5.19;70.31
20228;BME280;12195;55.790;37.572;2024-03-23T03:34:00;98512.36;;;5.14;70.42
20228;BME280;12195;55.790;37.572;2024-03-23T03:36:33;98518.48;;;5.13;70.60
20228;BME280;12195;55.790;37.572;2024-03-23T03:39:06;98502.13;;;5.11;70.76
20228;BME280;12195;55.790;37.572;2024-03-23T03:41:38;98500.28;;;5.13;70.84
20228;BME280;12195;55.790;37.572;2024-03-23T03:44:11;98495.93;;;5.13;70.81
20228;BME280;12195;55.790;37.572;2024-03-23T03:46:44;98491.03;;;5.07;71.34
20228;BME280;12195;55.790;37.572;2024-03-23T03:49:16;98507.34;;;5.11;71.08
20228;BME280;12195;55.790;37.572;2024-03-23T03:51:50;98483.23;;;5.07;71.53
20228;BME280;12195;55.790;37.572;2024-03-23T03:54:23;98474.42;;;5.10;71.32
20228;BME280;12195;55.790;37.572;2024-03-23T03:56:56;98472.08;;;5.05;71.73
20228;BME280;12195;55.790;37.572;2024-03-23T03:59:29;98470.41;;;5.04;71.73
20228;BME280;12195;55.790;37.572;2024-03-23T04:02:02;98458.92;;;5.08;71.84
20228;BME280;12195;55.790;37.572;2024-03-23T04:04:35;98459.00;;;5.07;72.21
20228;BME280;12195;55.790;37.572;2024-03-23T04:07:08;98462.27;;;5.10;72.08
20228;BME280;12195;55.790;37.572;2024-03-23T04:09:41;98457.73;;;5.14;72.35
20228;BME280;12195;55.790;37.572;2024-03-23T04:12:14;98451.70;;;5.13;72.71
20228;BME280;12195;55.790;37.572;2024-03-23T04:14:47;98451.63;;;5.15;72.81
20228;BME280;12195;55.790;37.572;2024-03-23T04:17:19;98440.88;;;5.21;72.85
20228;BME280;12195;55.790;37.572;2024-03-23T04:19:53;98432.77;;;5.27;73.03
20228;BME280;12195;55.790;37.572;2024-03-23T04:22:28;98435.02;;;5.33;72.99
20228;BME280;12195;55.790;37.572;2024-03-23T04:25:00;98430.48;;;5.36;72.96
20228;BME280;12195;55.790;37.572;2024-03-23T04:27:39;98430.83;;;5.46;72.66
20228;BME280;12195;55.790;37.572;2024-03-23T04:30:13;98426.31;;;5.49;72.45
20228;BME280;12195;55.790;37.572;2024-03-23T04:32:47;98419.41;;;5.48;72.58
20228;BME280;12195;55.790;37.572;2024-03-23T04:35:19;98413.88;;;5.54;72.31
20228;BME280;12195;55.790;37.572;2024-03-23T04:37:54;98413.80;;;5.56;72.59
20228;BME280;12195;55.790;37.572;2024-03-23T04:40:33;98410.92;;;5.60;72.49
20228;BME280;12195;55.790;37.572;2024-03-23T04:43:06;98409.59;;;5.69;72.36
20228;BME280;12195;55.790;37.572;2024-03-23T04:45:39;98404.02;;;5.75;72.00
20228;BME280;12195;55.790;37.572;2024-03-23T04:48:12;98397.72;;;5.79;72.02
20228;BME280;12195;55.790;37.572;2024-03-23T04:50:46;98399.34;;;5.82;71.74
20228;BME280;12195;55.790;37.572;2024-03-23T04:53:18;98389.77;;;5.82;72.01
20228;BME280;12195;55.790;37.572;2024-03-23T04:55:51;98398.23;;;5.86;71.83
20228;BME280;12195;55.790;37.572;2024-03-23T04:58:24;98385.30;;;5.84;71.66
20228;BME280;12195;55.790;37.572;2024-03-23T05:00:57;98390.51;;;5.84;71.55
20228;BME280;12195;55.790;37.572;2024-03-23T05:03:30;98386.16;;;5.85;71.35
20228;BME280;12195;55.790;37.572;2024-03-23T05:06:02;98383.63;;;5.83;71.50
20228;BME280;12195;55.790;37.572;2024-03-23T05:08:36;98389.98;;;5.77;71.80
20228;BME280;12195;55.790;37.572;2024-03-23T05:11:09;98379.35;;;5.82;71.23
20228;BME280;12195;55.790;37.572;2024-03-23T05:13:42;98382.17;;;5.77;71.43
20228;BME280;12195;55.790;37.572;2024-03-23T05:16:15;98381.52;;;5.74;71.70
20228;BME280;12195;55.790;37.572;2024-03-23T05:18:48;98382.62;;;5.70;72.16
20228;BME280;12195;55.790;37.572;2024-03-23T05:21:22;98367.84;;;5.55;72.29
20228;BME280;12195;55.790;37.572;2024-03-23T05:23:55;98367.84;;;5.55;72.29
20228;BME280;12195;55.790;37.572;2024-03-23T05:26:28;98371.63;;;5.65;72.45
20228;BME280;12195;55.790;37.572;2024-03-23T05:29:03;98366.59;;;5.62;72.53
20228;BME280;12195;55.790;37.572;2024-03-23T05:31:35;98360.53;;;5.61;72.48
20228;BME280;12195;55.790;37.572;2024-03-23T05:34:08;98346.41;;;5.65;72.48
20228;BME280;12195;55.790;37.572;2024-03-23T05:36:41;98343.81;;;5.65;72.56
20228;BME280;12195;55.790;37.572;2024-03-23T05:39:14;98356.02;;;5.65;72.57
20228;BME280;12195;55.790;37.572;2024-03-23T05:41:48;98342.14;;;5.64;72.90
20228;BME280;12195;55.790;37.572;2024-03-23T05:44:21;98350.12;;;5.61;73.17
20228;BME280;12195;55.790;37.572;2024-03-23T05:46:53;98347.44;;;5.63;73.37
20228;BME280;12195;55.790;37.572;2024-03-23T05:49:26;98335.83;;;5.68;73.50
20228;BME280;12195;55.790;37.572;2024-03-23T05:51:59;98338.44;;;5.68;73.55
20228;BME280;12195;55.790;37.572;2024-03-23T05:54:34;98326.27;;;5.69;73.87
20228;BME280;12195;55.790;37.572;2024-03-23T05:57:09;98332.22;;;5.71;73.95
20228;BME280;12195;55.790;37.572;2024-03-23T05:59:43;98323.30;;;5.75;73.86
20228;BME280;12195;55.790;37.572;2024-03-23T06:02:16;98331.03;;;5.76;73.86
20228;BME280;12195;55.790;37.572;2024-03-23T06:04:49;98321.63;;;5.74;74.01
20228;BME280;12195;55.790;37.572;2024-03-23T06:07:23;98320.78;;;5.73;74.15
20228;BME280;12195;55.790;37.572;2024-03-23T06:09:56;98321.80;;;5.71;74.35
20228;BME280;12195;55.790;37.572;2024-03-23T06:12:30;98313.25;;;5.69;74.51
20228;BME280;12195;55.790;37.572;2024-03-23T06:15:09;98315.69;;;5.72;74.36
20228;BME280;12195;55.790;37.572;2024-03-23T06:17:45;98314.92;;;5.70;74.79
20228;BME280;12195;55.790;37.572;2024-03-23T06:20:18;98304.42;;;5.71;74.97
20228;BME280;12195;55.790;37.572;2024-03-23T06:22:53;98296.53;;;5.73;74.89
20228;BME280;12195;55.790;37.572;2024-03-23T06:25:27;98299.95;;;5.73;75.21
20228;BME280;12195;55.790;37.572;2024-03-23T06:30:38;98297.61;;;5.85;75.73
20228;BME280;12195;55.790;37.572;2024-03-23T06:33:11;98310.20;;;5.76;75.50
20228;BME280;12195;55.790;37.572;2024-03-23T06:35:49;98287.41;;;5.80;75.69
20228;BME280;12195;55.790;37.572;2024-03-23T06:38:18;98300.21;;;5.85;75.69
20228;BME280;12195;55.790;37.572;2024-03-23T06:40:51;98285.35;;;5.87;75.24
20228;BME280;12195;55.790;37.572;2024-03-23T06:43:25;98296.67;;;5.86;75.10
20228;BME280;12195;55.790;37.572;2024-03-23T06:45:59;98284.81;;;5.80;75.96
20228;BME280;12195;55.790;37.572;2024-03-23T06:48:33;98284.81;;;5.80;75.50
20228;BME280;12195;55.790;37.572;2024-03-23T06:51:08;98277.20;;;5.77;75.66
20228;BME280;12195;55.790;37.572;2024-03-23T06:53:41;98276.44;;;5.75;75.71
20228;BME280;12195;55.790;37.572;2024-03-23T06:56:13;98264.27;;;5.75;75.96
20228;BME280;12195;55.790;37.572;2024-03-23T06:58:46;98277.28;;;5.75;76.01
20228;BME280;12195;55.790;37.572;2024-03-23T07:01:19;98269.39;;;5.77;76.06
20228;BME280;12195;55.790;37.572;2024-03-23T07:03:53;98253.77;;;5.77;76.26
20228;BME280;12195;55.790;37.572;2024-03-23T07:06:25;98253.68;;;5.78;76.23
20228;BME280;12195;55.790;37.572;2024-03-23T07:08:58;98260.73;;;5.76;76.47
20228;BME280;12195;55.790;37.572;2024-03-23T07:11:31;98260.81;;;5.91;76.17
20228;BME280;12195;55.790;37.572;2024-03-23T07:14:05;98249.16;;;5.82;76.63
20228;BME280;12195;55.790;37.572;2024-03-23T07:16:39;98255.09;;;5.84;76.89
20228;BME280;12195;55.790;37.572;2024-03-23T07:19:12;98247.19;;;5.86;76.68
20228;BME280;12195;55.790;37.572;2024-03-23T07:21:49;98254.75;;;5.90;76.69
20228;BME280;12195;55.790;37.572;2024-03-23T07:24:22;98255.59;;;5.91;77.13
20228;BME280;12195;55.790;37.572;2024-03-23T07:27:01;98249.16;;;5.96;76.54
20228;BME280;12195;55.790;37.572;2024-03-23T07:29:39;98254.58;;;5.93;76.70
20228;BME280;12195;55.790;37.572;2024-03-23T07:32:12;98243.39;;;5.91;77.01
20228;BME280;12195;55.790;37.572;2024-03-23T07:34:45;98245.06;;;5.92;77.25
20228;BME280;12195;55.790;37.572;2024-03-23T07:37:17;98248.05;;;6.00;76.96
20228;BME280;12195;55.790;37.572;2024-03-23T07:39:50;98246.30;;;6.01;77.38
20228;BME280;12195;55.790;37.572;2024-03-23T07:42:23;98239.03;;;6.06;77.50
20228;BME280;12195;55.790;37.572;2024-03-23T07:44:58;98242.31;;;6.09;77.29
20228;BME280;12195;55.790;37.572;2024-03-23T07:47:34;98233.66;;;6.09;77.42
20228;BME280;12195;55.790;37.572;2024-03-23T07:50:08;98235.31;;;6.10;77.37
20228;BME280;12195;55.790;37.572;2024-03-23T07:52:41;98239.50;;;6.12;77.61
20228;BME280;12195;55.790;37.572;2024-03-23T07:55:17;98233.17;;;6.16;77.75
20228;BME280;12195;55.790;37.572;2024-03-23T07:57:51;98230.86;;;6.26;77.25
20228;BME280;12195;55.790;37.572;2024-03-23T08:00:25;98229.36;;;6.22;77.06
20228;BME280;12195;55.790;37.572;2024-03-23T08:02:58;98223.30;;;6.21;77.70
20228;BME280;12195;55.790;37.572;2024-03-23T08:05:31;98230.86;;;6.26;78.08
20228;BME280;12195;55.790;37.572;2024-03-23T08:08:06;98229.47;;;6.34;77.41
20228;BME280;12195;55.790;37.572;2024-03-23T08:10:51;98226.20;;;6.45;76.77
20228;BME280;12195;55.790;37.572;2024-03-23T08:13:25;98224.05;;;6.37;77.12
20228;BME280;12195;55.790;37.572;2024-03-23T08:15:59;98207.59;;;6.37;77.35
20228;BME280;12195;55.790;37.572;2024-03-23T08:18:32;98218.66;;;6.40;77.26
20228;BME280;12195;55.790;37.572;2024-03-23T08:21:06;98215.77;;;6.45;76.48
20228;BME280;12195;55.790;37.572;2024-03-23T08:23:38;98216.69;;;6.58;76.12
20228;BME280;12195;55.790;37.572;2024-03-23T08:26:14;98209.71;;;6.44;76.39
20228;BME280;12195;55.790;37.572;2024-03-23T08:28:47;98201.89;;;6.44;76.25
20228;BME280;12195;55.790;37.572;2024-03-23T08:31:21;98206.16;;;6.45;76.67
20228;BME280;12195;55.790;37.572;2024-03-23T08:33:54;98202.44;;;6.49;77.29
20228;BME280;12195;55.790;37.572;2024-03-23T08:36:27;98205.80;;;6.51;76.98
20228;BME280;12195;55.790;37.572;2024-03-23T08:39:02;98202.70;;;6.59;77.11
20228;BME280;12195;55.790;37.572;2024-03-23T08:41:36;98201.67;;;6.61;76.97
20228;BME280;12195;55.790;37.572;2024-03-23T08:44:10;98215.56;;;6.62;76.77
20228;BME280;12195;55.790;37.572;2024-03-23T08:46:44;98196.77;;;6.57;76.68
20228;BME280;12195;55.790;37.572;2024-03-23T08:49:18;98201.04;;;6.58;76.21
20228;BME280;12195;55.790;37.572;2024-03-23T08:51:55;98193.49;;;6.53;76.72
20228;BME280;12195;55.790;37.572;2024-03-23T08:54:28;98194.52;;;6.51;76.53
20228;BME280;12195;55.790;37.572;2024-03-23T08:57:02;98187.64;;;6.50;76.82
20228;BME280;12195;55.790;37.572;2024-03-23T08:59:37;98188.49;;;6.50;77.24
20228;BME280;12195;55.790;37.572;2024-03-23T09:02:12;98182.03;;;6.56;76.83
20228;BME280;12195;55.790;37.572;2024-03-23T09:04:46;98166.97;;;6.47;76.60
20228;BME280;12195;55.790;37.572;2024-03-23T09:07:19;98166.97;;;6.47;76.60
20228;BME280;12195;55.790;37.572;2024-03-23T09:09:52;98173.58;;;6.52;76.83
20228;BME280;12195;55.790;37.572;2024-03-23T09:12:25;98177.03;;;6.53;76.61
20228;BME280;12195;55.790;37.572;2024-03-23T09:14:58;98177.03;;;6.53;77.09
20228;BME280;12195;55.790;37.572;2024-03-23T09:17:32;98171.82;;;6.53;77.20
20228;BME280;12195;55.790;37.572;2024-03-23T09:20:07;98166.61;;;6.53;77.16
20228;BME280;12195;55.790;37.572;2024-03-23T09:22:40;98166.52;;;6.54;77.21
20228;BME280;12195;55.790;37.572;2024-03-23T09:25:16;98167.33;;;6.55;77.39
20228;BME280;12195;55.790;37.572;2024-03-23T09:27:50;98165.39;;;6.58;77.30
20228;BME280;12195;55.790;37.572;2024-03-23T09:30:25;98169.84;;;6.56;77.82
20228;BME280;12195;55.790;37.572;2024-03-23T09:32:59;98157.06;;;6.66;77.30
20228;BME280;12195;55.790;37.572;2024-03-23T09:35:37;98153.27;;;6.57;77.10
20228;BME280;12195;55.790;37.572;2024-03-23T09:38:12;98149.93;;;6.55;77.46
20228;BME280;12195;55.790;37.572;2024-03-23T09:40:48;98139.50;;;6.55;77.25
20228;BME280;12195;55.790;37.572;2024-03-23T09:43:23;98137.62;;;6.57;77.93
20228;BME280;12195;55.790;37.572;2024-03-23T09:45:57;98138.16;;;6.62;77.93
20228;BME280;12195;55.790;37.572;2024-03-23T09:48:31;98147.45;;;6.66;77.87
20228;BME280;12195;55.790;37.572;2024-03-23T09:51:04;98147.93;;;6.73;77.72
20228;BME280;12195;55.790;37.572;2024-03-23T09:53:38;98147.08;;;6.72;77.85
20228;BME280;12195;55.790;37.572;2024-03-23T09:56:12;98138.12;;;6.76;77.51
20228;BME280;12195;55.790;37.572;2024-03-23T09:58:47;98133.76;;;6.77;77.55
20228;BME280;12195;55.790;37.572;2024-03-23T10:01:19;98140.55;;;6.79;77.98
20228;BME280;12195;55.790;37.572;2024-03-23T10:03:55;98132.30;;;6.85;77.94
20228;BME280;12195;55.790;37.572;2024-03-23T10:06:28;98128.47;;;6.91;77.92
20228;BME280;12195;55.790;37.572;2024-03-23T10:09:01;98118.76;;;6.93;77.76
20228;BME280;12195;55.790;37.572;2024-03-23T10:11:35;98117.52;;;6.98;77.85
20228;BME280;12195;55.790;37.572;2024-03-23T10:14:09;98125.91;;;7.03;77.68
20228;BME280;12195;55.790;37.572;2024-03-23T10:16:41;98123.83;;;7.08;77.01
20228;BME280;12195;55.790;37.572;2024-03-23T10:19:18;98129.96;;;7.07;77.30
20228;BME280;12195;55.790;37.572;2024-03-23T10:21:55;98110.45;;;7.13;76.98
20228;BME280;12195;55.790;37.572;2024-03-23T10:24:28;98105.04;;;7.16;77.39
20228;BME280;12195;55.790;37.572;2024-03-23T10:27:00;98121.88;;;7.24;77.30
20228;BME280;12195;55.790;37.572;2024-03-23T10:29:33;98110.06;;;7.31;77.66
20228;BME280;12195;55.790;37.572;2024-03-23T10:32:10;98112.09;;;7.40;77.27
20228;BME280;12195;55.790;37.572;2024-03-23T10:34:44;98115.12;;;7.47;77.38
20228;BME280;12195;55.790;37.572;2024-03-23T10:37:19;98108.41;;;7.55;76.60
20228;BME280;12195;55.790;37.572;2024-03-23T10:39:52;98104.86;;;7.56;75.99
20228;BME280;12195;55.790;37.572;2024-03-23T10:42:24;98119.61;;;7.57;76.02
20228;BME280;12195;55.790;37.572;2024-03-23T10:44:58;98114.05;;;7.62;76.08
20228;BME280;12195;55.790;37.572;2024-03-23T10:47:35;98111.04;;;7.68;76.05
20228;BME280;12195;55.790;37.572;2024-03-23T10:50:08;98103.41;;;7.77;76.61
20228;BME280;12195;55.790;37.572;2024-03-23T10:52:45;98100.06;;;7.88;75.82
20228;BME280;12195;55.790;37.572;2024-03-23T10:55:18;98097.95;;;7.93;75.50
20228;BME280;12195;55.790;37.572;2024-03-23T10:57:54;98104.73;;;7.95;74.61
20228;BME280;12195;55.790;37.572;2024-03-23T11:00:27;98109.02;;;7.96;75.29
20228;BME280;12195;55.790;37.572;2024-03-23T11:02:59;98113.08;;;8.00;74.91
20228;BME280;12195;55.790;37.572;2024-03-23T11:05:34;98115.80;;;7.99;75.14
20228;BME280;12195;55.790;37.572;2024-03-23T11:08:07;98116.44;;;8.02;75.25
20228;BME280;12195;55.790;37.572;2024-03-23T11:10:40;98102.43;;;8.03;75.70
20228;BME280;12195;55.790;37.572;2024-03-23T11:13:22;98106.50;;;8.07;75.16
20228;BME280;12195;55.790;37.572;2024-03-23T11:15:54;98105.04;;;8.03;75.04
20228;BME280;12195;55.790;37.572;2024-03-23T11:18:27;98097.20;;;8.03;75.21
20228;BME280;12195;55.790;37.572;2024-03-23T11:21:00;98096.99;;;8.06;75.07
20228;BME280;12195;55.790;37.572;2024-03-23T11:23:32;98091.77;;;8.06;75.23
20228;BME280;12195;55.790;37.572;2024-03-23T11:26:07;98095.84;;;8.10;75.08
20228;BME280;12195;55.790;37.572;2024-03-23T11:28:40;98082.77;;;8.10;75.13
20228;BME280;12195;55.790;37.572;2024-03-23T11:31:13;98092.06;;;8.14;75.15
20228;BME280;12195;55.790;37.572;2024-03-23T11:33:46;98090.98;;;8.29;73.85
20228;BME280;12195;55.790;37.572;2024-03-23T11:36:22;98085.47;;;8.21;74.71
20228;BME280;12195;55.790;37.572;2024-03-23T11:38:55;98082.75;;;8.23;75.52
20228;BME280;12195;55.790;37.572;2024-03-23T11:41:28;98079.08;;;8.25;75.08
20228;BME280;12195;55.790;37.572;2024-03-23T11:44:27;98075.65;;;8.25;74.59
20228;BME280;12195;55.790;37.572;2024-03-23T11:46:40;98075.86;;;8.22;73.73
20228;BME280;12195;55.790;37.572;2024-03-23T11:49:29;98084.53;;;8.10;75.01
20228;BME280;12195;55.790;37.572;2024-03-23T11:52:01;98077.95;;;8.04;74.75
20228;BME280;12195;55.790;37.572;2024-03-23T11:54:35;98077.66;;;7.96;75.15
20228;BME280;12195;55.790;37.572;2024-03-23T11:57:11;98077.55;;;7.98;74.74
20228;BME280;12195;55.790;37.572;2024-03-23T11:59:45;98078.00;;;7.92;75.61
20228;BME280;12195;55.790;37.572;2024-03-23T12:02:19;98072.87;;;7.90;75.02
20228;BME280;12195;55.790;37.572;2024-03-23T12:04:51;98078.10;;;7.90;74.88
20228;BME280;12195;55.790;37.572;2024-03-23T12:07:24;98069.86;;;7.84;74.97
20228;BME280;12195;55.790;37.572;2024-03-23T12:10:05;98072.06;;;7.77;75.73
20228;BME280;12195;55.790;37.572;2024-03-23T12:12:39;98067.76;;;7.76;75.59
20228;BME280;12195;55.790;37.572;2024-03-23T12:15:14;98065.48;;;7.72;75.39
20228;BME280;12195;55.790;37.572;2024-03-23T12:17:49;98073.53;;;7.69;75.27
20228;BME280;12195;55.790;37.572;2024-03-23T12:20:22;98078.34;;;7.62;75.55
20228;BME280;12195;55.790;37.572;2024-03-23T12:23:04;98069.58;;;7.51;75.67
20228;BME280;12195;55.790;37.572;2024-03-23T12:25:30;98063.81;;;7.46;75.89
20228;BME280;12195;55.790;37.572;2024-03-23T12:28:04;98069.03;;;7.46;76.06
20228;BME280;12195;55.790;37.572;2024-03-23T12:30:40;98065.30;;;7.37;76.72
20228;BME280;12195;55.790;37.572;2024-03-23T12:33:13;98066.24;;;7.36;76.93
20228;BME280;12195;55.790;37.572;2024-03-23T12:36:03;98072.37;;;7.35;77.15
20228;BME280;12195;55.790;37.572;2024-03-23T12:38:36;98074.98;;;7.35;77.17
20228;BME280;12195;55.790;37.572;2024-03-23T12:41:09;98064.78;;;7.32;77.44
20228;BME280;12195;55.790;37.572;2024-03-23T12:43:42;98064.98;;;7.29;77.42
20228;BME280;12195;55.790;37.572;2024-03-23T12:46:15;98064.78;;;7.32;77.27
20228;BME280;12195;55.790;37.572;2024-03-23T12:48:48;98058.91;;;7.29;77.51
20228;BME280;12195;55.790;37.572;2024-03-23T12:51:21;98061.62;;;7.27;77.65
20228;BME280;12195;55.790;37.572;2024-03-23T12:53:56;98066.02;;;7.27;77.56
20228;BME280;12195;55.790;37.572;2024-03-23T12:56:28;98058.30;;;7.25;77.78
20228;BME280;12195;55.790;37.572;2024-03-23T12:59:01;98052.03;;;7.28;77.70
20228;BME280;12195;55.790;37.572;2024-03-23T13:01:34;98056.20;;;7.30;77.69
20228;BME280;12195;55.790;37.572;2024-03-23T13:04:07;98055.34;;;7.30;77.89
20228;BME280;12195;55.790;37.572;2024-03-23T13:06:40;98056.20;;;7.30;78.11
20228;BME280;12195;55.790;37.572;2024-03-23T13:09:13;98049.93;;;7.33;78.17
20228;BME280;12195;55.790;37.572;2024-03-23T13:11:46;98060.27;;;7.34;77.78
20228;BME280;12195;55.790;37.572;2024-03-23T13:14:18;98051.92;;;7.29;77.89
20228;BME280;12195;55.790;37.572;2024-03-23T13:16:52;98060.80;;;7.27;77.98
20228;BME280;12195;55.790;37.572;2024-03-23T13:19:25;98058.30;;;7.25;77.84
20228;BME280;12195;55.790;37.572;2024-03-23T13:21:58;98057.55;;;7.23;78.31
20228;BME280;12195;55.790;37.572;2024-03-23T13:24:33;98057.55;;;7.23;78.26
20228;BME280;12195;55.790;37.572;2024-03-23T13:27:05;98047.11;;;7.23;78.37
20228;BME280;12195;55.790;37.572;2024-03-23T13:29:39;98058.19;;;7.27;78.24
20228;BME280;12195;55.790;37.572;2024-03-23T13:32:13;98050.46;;;7.25;78.50
20228;BME280;12195;55.790;37.572;2024-03-23T13:34:48;98050.36;;;7.27;78.92
20228;BME280;12195;55.790;37.572;2024-03-23T13:37:22;98047.32;;;7.33;78.77
20228;BME280;12195;55.790;37.572;2024-03-23T13:39:54;98051.50;;;7.35;78.41
20228;BME280;12195;55.790;37.572;2024-03-23T13:42:28;98040.14;;;7.36;78.71
20228;BME280;12195;55.790;37.572;2024-03-23T13:45:00;98049.63;;;7.37;78.88
20228;BME280;12195;55.790;37.572;2024-03-23T13:47:33;98040.31;;;7.46;78.66
20228;BME280;12195;55.790;37.572;2024-03-23T13:50:06;98043.77;;;7.46;78.67
20228;BME280;12195;55.790;37.572;2024-03-23T13:52:39;98042.72;;;7.49;78.29
20228;BME280;12195;55.790;37.572;2024-03-23T13:55:12;98040.02;;;7.50;78.05
20228;BME280;12195;55.790;37.572;2024-03-23T13:57:48;98039.27;;;7.48;77.90
20228;BME280;12195;55.790;37.572;2024-03-23T14:00:22;98040.11;;;7.49;78.04
20228;BME280;12195;55.790;37.572;2024-03-23T14:03:12;98041.67;;;7.51;77.72
20228;BME280;12195;55.790;37.572;2024-03-23T14:05:45;98042.42;;;7.53;77.84
20228;BME280;12195;55.790;37.572;2024-03-23T14:08:21;98032.89;;;7.52;78.08
20228;BME280;12195;55.790;37.572;2024-03-23T14:10:54;98032.69;;;7.55;77.77
20228;BME280;12195;55.790;37.572;2024-03-23T14:13:29;98036.25;;;7.54;77.87
20228;BME280;12195;55.790;37.572;2024-03-23T14:16:02;98036.34;;;7.53;77.91
20228;BME280;12195;55.790;37.572;2024-03-23T14:18:35;98034.34;;;7.56;78.06
20228;BME280;12195;55.790;37.572;2024-03-23T14:21:08;98039.88;;;7.64;78.02
20228;BME280;12195;55.790;37.572;2024-03-23T14:23:42;98042.39;;;7.66;77.73
20228;BME280;12195;55.790;37.572;2024-03-23T14:26:15;98050.33;;;7.64;77.71
20228;BME280;12195;55.790;37.572;2024-03-23T14:28:48;98048.42;;;7.79;77.73